Time,TemperatureF,DewpointF,PressureIn,WindDirection,WindDirectionDegrees,WindSpeedMPH,WindSpeedGustMPH,Humidity,HourlyPrecipIn,Conditions,Clouds,dailyrainin,SoftwareType,DateUTC
2013-06-20 00:00:00,65.2,63.7,30.10,ENE,61,0.0,0.0,95,0.00,,---,0.00,VWS V14.01,2013-06-20 04:00:00,
2013-06-20 00:01:00,65.2,63.7,30.09,ENE,61,0.0,0.0,95,0.00,,---,0.00,VWS V14.01,2013-06-20 04:01:00,
2013-06-20 00:06:00,65.0,63.5,30.10,ENE,61,0.0,0.0,95,0.00,,---,0.00,VWS V14.01,2013-06-20 04:06:00,
2013-06-20 00:11:00,65.0,63.5,30.10,ENE,61,0.0,0.0,95,0.00,,---,0.00,VWS V14.01,2013-06-20 04:11:00,
2013-06-20 00:16:00,64.9,63.4,30.10,ENE,61,0.0,0.0,95,0.00,,---,0.00,VWS V14.01,2013-06-20 04:16:00,
2013-06-20 00:21:00,64.9,63.4,30.10,ENE,61,0.0,0.0,95,0.00,,---,0.00,VWS V14.01,2013-06-20 04:21:00,
2013-06-20 00:26:00,64.8,63.3,30.10,ENE,61,0.0,0.0,95,0.00,,---,0.00,VWS V14.01,2013-06-20 04:26:00,
2013-06-20 00:31:00,64.8,63.6,30.10,ENE,61,0.0,0.0,96,0.00,,---,0.00,VWS V14.01,2013-06-20 04:31:00,
2013-06-20 00:36:00,64.7,63.5,30.11,ENE,61,0.0,0.0,96,0.00,,---,0.00,VWS V14.01,2013-06-20 04:36:00,
2013-06-20 00:41:00,64.7,63.5,30.11,ENE,61,0.0,0.0,96,0.00,,---,0.00,VWS V14.01,2013-06-20 04:41:00,
2013-06-20 00:46:00,64.6,63.4,30.11,ENE,61,0.0,0.0,96,0.00,,---,0.00,VWS V14.01,2013-06-20 04:46:00,
2013-06-20 00:51:00,64.6,63.4,30.11,ENE,61,0.0,0.0,96,0.00,,---,0.00,VWS V14.01,2013-06-20 04:51:00,
2013-06-20 00:56:00,64.5,63.3,30.11,ENE,61,0.0,0.0,96,0.00,,---,0.00,VWS V14.01,2013-06-20 04:56:00,
2013-06-20 01:01:00,64.4,63.2,30.11,ENE,61,0.0,0.0,96,0.00,,---,0.00,VWS V14.01,2013-06-20 05:01:00,
2013-06-20 01:06:00,64.4,63.2,30.11,ENE,61,0.0,0.0,96,0.00,,---,0.00,VWS V14.01,2013-06-20 05:06:00,
2013-06-20 01:11:00,64.3,63.1,30.11,ENE,61,0.0,0.0,96,0.00,,---,0.00,VWS V14.01,2013-06-20 05:11:00,
2013-06-20 01:16:00,64.3,63.1,30.11,ENE,62,0.0,0.0,96,0.00,,---,0.00,VWS V14.01,2013-06-20 05:16:00,
2013-06-20 01:21:00,64.3,63.1,30.11,ENE,63,0.0,0.0,96,0.00,,---,0.00,VWS V14.01,2013-06-20 05:21:00,
2013-06-20 01:26:00,64.3,63.1,30.11,ENE,63,0.0,0.0,96,0.00,,---,0.00,VWS V14.01,2013-06-20 05:26:00,
2013-06-20 01:32:00,64.2,63.0,30.11,ENE,63,0.0,0.0,96,0.00,,---,0.00,VWS V14.01,2013-06-20 05:32:00,
2013-06-20 01:37:00,64.2,63.0,30.11,ENE,63,0.0,0.0,96,0.00,,---,0.00,VWS V14.01,2013-06-20 05:37:00,
2013-06-20 01:42:00,64.1,62.9,30.11,ENE,63,0.0,0.0,96,0.00,,---,0.00,VWS V14.01,2013-06-20 05:42:00,
2013-06-20 01:47:00,64.0,62.8,30.11,ENE,63,0.0,0.0,96,0.00,,---,0.00,VWS V14.01,2013-06-20 05:47:00,
2013-06-20 01:52:00,63.9,62.7,30.11,ENE,63,0.0,0.0,96,0.00,,---,0.00,VWS V14.01,2013-06-20 05:52:00,
2013-06-20 01:57:00,63.9,62.7,30.11,ENE,63,0.0,0.0,96,0.00,,---,0.00,VWS V14.01,2013-06-20 05:57:00,
2013-06-20 02:02:00,63.8,62.6,30.11,ENE,63,0.0,0.0,96,0.00,,---,0.00,VWS V14.01,2013-06-20 06:02:00,
2013-06-20 02:07:00,63.8,62.6,30.11,ENE,63,0.0,0.0,96,0.00,,---,0.00,VWS V14.01,2013-06-20 06:07:00,
2013-06-20 02:12:00,63.7,62.5,30.11,ENE,63,0.0,0.0,96,0.00,,---,0.00,VWS V14.01,2013-06-20 06:12:00,
2013-06-20 02:17:00,63.6,62.4,30.11,ENE,63,0.0,0.0,96,0.00,,---,0.00,VWS V14.01,2013-06-20 06:17:00,
2013-06-20 02:22:00,63.6,62.4,30.11,ENE,63,0.0,0.0,96,0.00,,---,0.00,VWS V14.01,2013-06-20 06:22:00,
2013-06-20 02:27:00,63.5,62.3,30.11,ENE,63,0.0,0.0,96,0.00,,---,0.00,VWS V14.01,2013-06-20 06:27:00,
2013-06-20 02:32:00,63.4,62.2,30.11,ENE,63,0.0,0.0,96,0.00,,---,0.00,VWS V14.01,2013-06-20 06:32:00,
2013-06-20 02:37:00,63.4,62.2,30.11,ENE,63,0.0,0.0,96,0.00,,---,0.00,VWS V14.01,2013-06-20 06:37:00,
2013-06-20 02:42:00,63.3,62.1,30.11,ENE,63,0.0,0.0,96,0.00,,---,0.00,VWS V14.01,2013-06-20 06:42:00,
2013-06-20 02:47:00,63.2,62.0,30.11,ENE,63,0.0,0.0,96,0.00,,---,0.00,VWS V14.01,2013-06-20 06:47:00,
2013-06-20 02:52:00,63.1,61.9,30.11,ENE,63,0.0,0.0,96,0.00,,---,0.00,VWS V14.01,2013-06-20 06:52:00,
2013-06-20 02:57:00,63.0,61.8,30.11,ENE,63,0.0,0.0,96,0.00,,---,0.00,VWS V14.01,2013-06-20 06:57:00,
2013-06-20 03:02:00,63.0,61.8,30.11,ENE,63,0.0,0.0,96,0.00,,---,0.00,VWS V14.01,2013-06-20 07:02:00,
2013-06-20 03:07:00,62.9,61.8,30.11,ENE,63,0.0,0.0,96,0.00,,---,0.00,VWS V14.01,2013-06-20 07:07:00,
2013-06-20 03:12:00,62.8,61.7,30.11,ENE,63,0.0,0.0,96,0.00,,---,0.00,VWS V14.01,2013-06-20 07:12:00,
2013-06-20 03:17:00,62.8,61.7,30.11,ENE,63,0.0,0.0,96,0.00,,---,0.00,VWS V14.01,2013-06-20 07:17:00,
2013-06-20 03:22:00,62.7,61.5,30.11,ENE,63,0.0,0.0,96,0.00,,---,0.00,VWS V14.01,2013-06-20 07:22:00,
2013-06-20 03:27:00,62.6,61.5,30.11,ENE,63,0.0,0.0,96,0.00,,---,0.00,VWS V14.01,2013-06-20 07:27:00,
2013-06-20 03:32:00,62.6,61.5,30.11,ENE,63,0.0,0.0,96,0.00,,---,0.00,VWS V14.01,2013-06-20 07:32:00,
2013-06-20 03:37:00,62.6,61.5,30.12,ENE,63,0.0,0.0,96,0.00,,---,0.00,VWS V14.01,2013-06-20 07:37:00,
2013-06-20 03:42:00,62.7,61.5,30.12,ENE,63,0.0,0.0,96,0.00,,---,0.00,VWS V14.01,2013-06-20 07:42:00,
2013-06-20 03:47:00,62.7,61.5,30.12,ENE,63,0.0,0.0,96,0.00,,---,0.00,VWS V14.01,2013-06-20 07:47:00,
2013-06-20 03:52:00,62.7,61.5,30.12,ENE,63,0.0,0.0,96,0.00,,---,0.00,VWS V14.01,2013-06-20 07:52:00,
2013-06-20 03:57:00,62.8,61.7,30.12,ENE,63,0.0,0.0,96,0.00,,---,0.00,VWS V14.01,2013-06-20 07:57:00,
2013-06-20 04:02:00,63.0,61.5,30.12,ENE,63,0.0,0.0,95,0.00,,---,0.00,VWS V14.01,2013-06-20 08:02:00,
2013-06-20 04:07:00,63.1,61.7,30.12,ENE,63,0.0,0.0,95,0.00,,---,0.00,VWS V14.01,2013-06-20 08:07:00,
2013-06-20 04:12:00,63.1,61.9,30.12,ENE,63,0.0,0.0,96,0.00,,---,0.00,VWS V14.01,2013-06-20 08:12:00,
2013-06-20 04:17:00,63.1,61.9,30.12,ENE,63,0.0,0.0,96,0.00,,---,0.00,VWS V14.01,2013-06-20 08:17:00,
2013-06-20 04:22:00,63.2,61.8,30.13,NE,49,0.0,0.0,95,0.00,,---,0.00,VWS V14.01,2013-06-20 08:22:00,
2013-06-20 04:28:00,63.3,61.8,30.12,NE,49,0.0,0.0,95,0.00,,---,0.00,VWS V14.01,2013-06-20 08:28:00,
2013-06-20 04:33:00,63.5,62.0,30.13,NE,49,0.0,0.0,95,0.00,,---,0.00,VWS V14.01,2013-06-20 08:33:00,
2013-06-20 04:38:00,63.7,62.2,30.13,NE,46,0.0,0.0,95,0.00,,---,0.00,VWS V14.01,2013-06-20 08:38:00,
2013-06-20 04:43:00,64.0,62.5,30.13,NNW,341,0.0,0.0,95,0.00,,---,0.00,VWS V14.01,2013-06-20 08:43:00,
2013-06-20 04:48:00,64.2,62.7,30.13,NNW,340,0.0,0.0,95,0.00,,---,0.00,VWS V14.01,2013-06-20 08:48:00,
2013-06-20 04:53:00,64.3,62.8,30.13,NNW,341,0.0,0.0,95,0.00,,---,0.00,VWS V14.01,2013-06-20 08:53:00,
2013-06-20 04:58:00,64.4,62.9,30.13,NNW,334,1.0,1.0,95,0.00,,---,0.00,VWS V14.01,2013-06-20 08:58:00,
2013-06-20 05:03:00,64.5,63.0,30.13,NNW,329,1.0,1.0,95,0.00,,---,0.00,VWS V14.01,2013-06-20 09:03:00,
2013-06-20 05:08:00,64.5,63.0,30.14,WNW,283,0.0,1.0,95,0.00,,---,0.00,VWS V14.01,2013-06-20 09:08:00,
2013-06-20 05:13:00,64.6,63.1,30.14,NW,320,0.0,1.0,95,0.00,,---,0.00,VWS V14.01,2013-06-20 09:13:00,
2013-06-20 05:18:00,64.6,63.1,30.14,NW,319,0.0,1.0,95,0.00,,---,0.00,VWS V14.01,2013-06-20 09:18:00,
2013-06-20 05:23:00,64.7,63.2,30.14,NW,320,0.0,1.0,95,0.00,,---,0.00,VWS V14.01,2013-06-20 09:23:00,
2013-06-20 05:28:00,64.7,63.2,30.14,NW,310,0.0,1.0,95,0.00,,---,0.00,VWS V14.01,2013-06-20 09:28:00,
2013-06-20 05:33:00,64.7,63.2,30.14,NW,310,0.0,1.0,95,0.00,,---,0.00,VWS V14.01,2013-06-20 09:33:00,
2013-06-20 05:38:00,64.7,63.2,30.14,NW,310,0.0,1.0,95,0.00,,---,0.00,VWS V14.01,2013-06-20 09:38:00,
2013-06-20 05:43:00,64.8,63.3,30.15,NNE,24,0.0,1.0,95,0.00,,---,0.00,VWS V14.01,2013-06-20 09:43:00,
2013-06-20 05:48:00,64.7,63.2,30.15,NNE,24,0.0,1.0,95,0.00,,---,0.00,VWS V14.01,2013-06-20 09:48:00,
2013-06-20 05:53:00,64.6,63.4,30.15,NNE,24,0.0,1.0,96,0.00,,---,0.00,VWS V14.01,2013-06-20 09:53:00,
2013-06-20 05:58:00,64.2,63.0,30.15,NNE,12,0.0,0.0,96,0.00,,---,0.00,VWS V14.01,2013-06-20 09:58:00,
2013-06-20 06:03:00,64.1,62.9,30.16,NNE,12,0.0,0.0,96,0.00,,---,0.00,VWS V14.01,2013-06-20 10:03:00,
2013-06-20 06:08:00,63.9,62.7,30.16,North,11,0.0,0.0,96,0.00,,---,0.00,VWS V14.01,2013-06-20 10:08:00,
2013-06-20 06:13:00,63.7,62.5,30.16,NNE,12,0.0,0.0,96,0.00,,---,0.00,VWS V14.01,2013-06-20 10:13:00,
2013-06-20 06:18:00,63.5,62.3,30.16,NNE,12,0.0,0.0,96,0.00,,---,0.00,VWS V14.01,2013-06-20 10:18:00,
2013-06-20 06:23:00,63.4,62.2,30.16,NNE,12,0.0,0.0,96,0.00,,---,0.00,VWS V14.01,2013-06-20 10:23:00,
2013-06-20 06:28:00,63.3,62.1,30.16,NNE,12,0.0,0.0,96,0.00,,---,0.00,VWS V14.01,2013-06-20 10:28:00,
2013-06-20 06:33:00,63.2,62.0,30.16,NNE,12,0.0,0.0,96,0.00,,---,0.00,VWS V14.01,2013-06-20 10:33:00,
2013-06-20 06:38:00,63.1,61.9,30.16,NNE,12,0.0,0.0,96,0.00,,---,0.00,VWS V14.01,2013-06-20 10:38:00,
2013-06-20 06:43:00,63.1,61.9,30.17,North,11,0.0,0.0,96,0.00,,---,0.00,VWS V14.01,2013-06-20 10:43:00,
2013-06-20 06:48:00,63.1,61.9,30.17,NNE,12,0.0,0.0,96,0.00,,---,0.00,VWS V14.01,2013-06-20 10:48:00,
2013-06-20 06:53:00,63.1,61.9,30.17,NNE,12,0.0,0.0,96,0.00,,---,0.00,VWS V14.01,2013-06-20 10:53:00,
2013-06-20 06:58:00,63.2,61.8,30.17,NNE,12,0.0,0.0,95,0.00,,---,0.00,VWS V14.01,2013-06-20 10:58:00,
2013-06-20 07:03:00,63.3,61.8,30.18,North,11,0.0,0.0,95,0.00,,---,0.00,VWS V14.01,2013-06-20 11:03:00,
2013-06-20 07:08:00,63.3,61.8,30.18,NNE,12,0.0,0.0,95,0.00,,---,0.00,VWS V14.01,2013-06-20 11:08:00,
2013-06-20 07:13:00,63.4,62.0,30.18,NNE,12,0.0,0.0,95,0.00,,---,0.00,VWS V14.01,2013-06-20 11:13:00,
2013-06-20 07:18:00,63.5,62.0,30.18,North,11,0.0,0.0,95,0.00,,---,0.00,VWS V14.01,2013-06-20 11:18:00,
2013-06-20 07:23:00,63.5,62.0,30.18,North,11,0.0,0.0,95,0.00,,---,0.00,VWS V14.01,2013-06-20 11:23:00,
2013-06-20 07:29:00,63.5,62.0,30.18,North,11,0.0,0.0,95,0.00,,---,0.00,VWS V14.01,2013-06-20 11:29:00,
2013-06-20 07:34:00,63.5,62.0,30.18,North,11,0.0,0.0,95,0.00,,---,0.00,VWS V14.01,2013-06-20 11:34:00,
2013-06-20 07:39:00,63.6,62.2,30.18,North,11,0.0,0.0,95,0.00,,---,0.00,VWS V14.01,2013-06-20 11:39:00,
2013-06-20 07:44:00,63.6,62.2,30.19,NNW,331,0.0,1.0,95,0.00,,---,0.00,VWS V14.01,2013-06-20 11:44:00,
2013-06-20 07:49:00,63.6,62.2,30.19,SSE,158,0.0,1.0,95,0.00,,---,0.00,VWS V14.01,2013-06-20 11:49:00,
2013-06-20 07:54:00,63.7,62.2,30.19,SSE,158,0.0,1.0,95,0.00,,---,0.00,VWS V14.01,2013-06-20 11:54:00,
2013-06-20 07:59:00,63.8,62.3,30.19,SSE,157,0.0,0.0,95,0.00,,---,0.00,VWS V14.01,2013-06-20 11:59:00,
2013-06-20 08:04:00,63.9,62.7,30.19,South,190,0.0,0.0,96,0.00,,---,0.00,VWS V14.01,2013-06-20 12:04:00,
2013-06-20 08:09:00,63.9,62.7,30.19,South,190,0.0,0.0,96,0.00,,---,0.00,VWS V14.01,2013-06-20 12:09:00,
2013-06-20 08:14:00,64.1,62.6,30.19,South,188,0.0,0.0,95,0.00,,---,0.00,VWS V14.01,2013-06-20 12:14:00,
2013-06-20 08:19:00,64.2,63.0,30.19,NNW,337,0.0,2.0,96,0.00,,---,0.00,VWS V14.01,2013-06-20 12:19:00,
2013-06-20 08:24:00,64.1,62.9,30.20,NNW,336,0.0,2.0,96,0.00,,---,0.00,VWS V14.01,2013-06-20 12:24:00,
2013-06-20 08:29:00,64.3,63.1,30.20,NW,325,0.0,1.0,96,0.00,,---,0.00,VWS V14.01,2013-06-20 12:29:00,
2013-06-20 08:34:00,64.5,63.3,30.20,NW,314,0.0,1.0,96,0.00,,---,0.00,VWS V14.01,2013-06-20 12:34:00,
2013-06-20 08:39:00,64.7,63.2,30.20,NW,313,0.0,1.0,95,0.00,,---,0.00,VWS V14.01,2013-06-20 12:39:00,
2013-06-20 08:44:00,64.8,63.0,30.20,NW,313,0.0,1.0,94,0.00,,---,0.00,VWS V14.01,2013-06-20 12:44:00,
2013-06-20 08:49:00,65.1,63.0,30.20,NW,313,0.0,1.0,93,0.00,,---,0.00,VWS V14.01,2013-06-20 12:49:00,
2013-06-20 08:54:00,65.5,63.4,30.21,NW,312,0.0,1.0,93,0.00,,---,0.00,VWS V14.01,2013-06-20 12:54:00,
2013-06-20 08:59:00,65.8,63.1,30.20,NW,312,0.0,0.0,91,0.00,,---,0.00,VWS V14.01,2013-06-20 12:59:00,
2013-06-20 09:04:00,66.0,63.0,30.20,NW,317,0.0,1.0,90,0.00,,---,0.00,VWS V14.01,2013-06-20 13:04:00,
2013-06-20 09:09:00,66.3,63.0,30.20,SSW,198,0.0,1.0,89,0.00,,---,0.00,VWS V14.01,2013-06-20 13:09:00,
2013-06-20 09:14:00,66.6,62.3,30.20,NE,42,0.0,1.0,86,0.00,,---,0.00,VWS V14.01,2013-06-20 13:14:00,
2013-06-20 09:19:00,67.0,62.7,30.20,North,5,0.0,1.0,86,0.00,,---,0.00,VWS V14.01,2013-06-20 13:19:00,
2013-06-20 09:24:00,67.2,61.9,30.20,West,281,0.0,1.0,83,0.00,,---,0.00,VWS V14.01,2013-06-20 13:24:00,
2013-06-20 09:29:00,67.5,62.2,30.20,SSE,157,1.0,1.0,83,0.00,,---,0.00,VWS V14.01,2013-06-20 13:29:00,
2013-06-20 09:34:00,67.8,61.8,30.20,WNW,288,0.0,1.0,81,0.00,,---,0.00,VWS V14.01,2013-06-20 13:34:00,
2013-06-20 09:39:00,68.2,62.2,30.21,NNW,336,0.0,1.0,81,0.00,,---,0.00,VWS V14.01,2013-06-20 13:39:00,
2013-06-20 09:44:00,68.5,62.1,30.20,NW,323,0.0,1.0,80,0.00,,---,0.00,VWS V14.01,2013-06-20 13:44:00,
2013-06-20 09:49:00,68.8,62.7,30.21,SSE,161,0.0,1.0,81,0.00,,---,0.00,VWS V14.01,2013-06-20 13:49:00,
2013-06-20 09:54:00,69.0,61.9,30.21,East,84,1.0,2.0,78,0.00,,---,0.00,VWS V14.01,2013-06-20 13:54:00,
2013-06-20 09:59:00,69.3,62.2,30.20,NNE,32,0.0,1.0,78,0.00,,---,0.00,VWS V14.01,2013-06-20 13:59:00,
2013-06-20 10:04:00,69.6,62.8,30.21,NW,323,1.0,1.0,79,0.00,,---,0.00,VWS V14.01,2013-06-20 14:04:00,
2013-06-20 10:09:00,69.9,62.7,30.21,NW,320,0.0,1.0,78,0.00,,---,0.00,VWS V14.01,2013-06-20 14:09:00,
2013-06-20 10:15:00,70.3,63.1,30.21,NW,325,0.0,1.0,78,0.00,,---,0.00,VWS V14.01,2013-06-20 14:15:00,
2013-06-20 10:20:00,70.7,62.8,30.21,North,5,1.0,2.0,76,0.00,,---,0.00,VWS V14.01,2013-06-20 14:20:00,
2013-06-20 10:25:00,71.1,62.8,30.21,NNE,27,0.0,2.0,75,0.00,,---,0.00,VWS V14.01,2013-06-20 14:25:00,
2013-06-20 10:30:00,71.4,62.7,30.21,NNW,348,1.0,1.0,74,0.00,,---,0.00,VWS V14.01,2013-06-20 14:30:00,
2013-06-20 10:35:00,72.0,64.0,30.21,ESE,113,0.0,2.0,76,0.00,,---,0.00,VWS V14.01,2013-06-20 14:35:00,
2013-06-20 10:40:00,72.4,62.5,30.21,South,169,0.0,2.0,71,0.00,,---,0.00,VWS V14.01,2013-06-20 14:40:00,
2013-06-20 10:45:00,73.0,63.0,30.21,North,351,1.0,2.0,71,0.00,,---,0.00,VWS V14.01,2013-06-20 14:45:00,
2013-06-20 10:50:00,73.4,62.6,30.21,NNE,15,1.0,2.0,69,0.00,,---,0.00,VWS V14.01,2013-06-20 14:50:00,
2013-06-20 10:55:00,73.7,62.9,30.21,NW,324,0.0,2.0,69,0.00,,---,0.00,VWS V14.01,2013-06-20 14:55:00,
2013-06-20 11:00:00,74.2,63.4,30.21,NNW,330,1.0,1.0,69,0.00,,---,0.00,VWS V14.01,2013-06-20 15:00:00,
2013-06-20 11:05:00,74.6,63.3,30.21,East,98,1.0,2.0,68,0.00,,---,0.00,VWS V14.01,2013-06-20 15:05:00,
2013-06-20 11:10:00,75.1,64.2,30.21,SSW,209,1.0,3.0,69,0.00,,---,0.00,VWS V14.01,2013-06-20 15:10:00,
2013-06-20 11:15:00,75.6,63.0,30.21,NW,308,1.0,3.0,65,0.00,,---,0.00,VWS V14.01,2013-06-20 15:15:00,
2013-06-20 11:20:00,76.0,64.3,30.21,West,264,0.0,3.0,67,0.00,,---,0.00,VWS V14.01,2013-06-20 15:20:00,
2013-06-20 11:25:00,76.5,64.7,30.21,East,86,2.0,3.0,67,0.00,,---,0.00,VWS V14.01,2013-06-20 15:25:00,
2013-06-20 11:30:00,76.8,64.2,30.21,WNW,288,0.0,2.0,65,0.00,,---,0.00,VWS V14.01,2013-06-20 15:30:00,
2013-06-20 11:35:00,77.2,64.5,30.21,SE,126,1.0,2.0,65,0.00,,---,0.00,VWS V14.01,2013-06-20 15:35:00,
2013-06-20 11:40:00,77.4,63.4,30.21,NNE,28,0.0,2.0,62,0.00,,---,0.00,VWS V14.01,2013-06-20 15:40:00,
2013-06-20 11:45:00,77.3,63.7,30.21,NNE,12,0.0,2.0,63,0.00,,---,0.00,VWS V14.01,2013-06-20 15:45:00,
2013-06-20 11:50:00,77.5,63.9,30.21,NE,50,1.0,2.0,63,0.00,,---,0.00,VWS V14.01,2013-06-20 15:50:00,
2013-06-20 11:55:00,77.5,63.9,30.21,NE,44,1.0,1.0,63,0.00,,---,0.00,VWS V14.01,2013-06-20 15:55:00,
2013-06-20 12:00:00,78.1,64.9,30.21,NNW,329,0.0,1.0,64,0.00,,---,0.00,VWS V14.01,2013-06-20 16:00:00,
2013-06-20 12:05:00,78.6,64.0,30.21,ESE,110,0.0,1.0,61,0.00,,---,0.00,VWS V14.01,2013-06-20 16:05:00,
2013-06-20 12:10:00,78.7,64.1,30.21,NNW,329,2.0,3.0,61,0.00,,---,0.00,VWS V14.01,2013-06-20 16:10:00,
2013-06-20 12:15:00,78.3,64.7,30.21,NE,49,0.0,3.0,63,0.00,,---,0.00,VWS V14.01,2013-06-20 16:15:00,
2013-06-20 12:20:00,78.6,63.6,30.20,WSW,245,0.0,3.0,60,0.00,,---,0.00,VWS V14.01,2013-06-20 16:20:00,
2013-06-20 12:25:00,79.0,65.3,30.21,WNW,298,1.0,1.0,63,0.00,,---,0.00,VWS V14.01,2013-06-20 16:25:00,
2013-06-20 12:30:00,79.2,64.6,30.21,ESE,119,1.0,1.0,61,0.00,,---,0.00,VWS V14.01,2013-06-20 16:30:00,
2013-06-20 12:35:00,79.6,64.0,30.21,ENE,61,0.0,1.0,59,0.00,,---,0.00,VWS V14.01,2013-06-20 16:35:00,
2013-06-20 12:40:00,79.4,63.8,30.20,NNE,32,0.0,3.0,59,0.00,,---,0.00,VWS V14.01,2013-06-20 16:40:00,
2013-06-20 12:45:00,79.7,65.1,30.21,SW,219,1.0,3.0,61,0.00,,---,0.00,VWS V14.01,2013-06-20 16:45:00,
2013-06-20 12:50:00,80.1,65.0,30.20,SSE,165,1.0,3.0,60,0.00,,---,0.00,VWS V14.01,2013-06-20 16:50:00,
2013-06-20 12:55:00,80.6,64.5,30.20,SSW,213,1.0,1.0,58,0.00,,---,0.00,VWS V14.01,2013-06-20 16:55:00,
2013-06-20 13:00:00,80.9,64.8,30.20,SW,219,1.0,2.0,58,0.00,,---,0.00,VWS V14.01,2013-06-20 17:00:00,
2013-06-20 13:05:00,80.7,64.1,30.20,NE,47,1.0,3.0,57,0.00,,---,0.00,VWS V14.01,2013-06-20 17:05:00,
2013-06-20 13:11:00,80.5,62.3,30.20,West,260,1.0,4.0,54,0.00,,---,0.00,VWS V14.01,2013-06-20 17:11:00,
2013-06-20 13:16:00,80.3,63.7,30.20,South,191,1.0,4.0,57,0.00,,---,0.00,VWS V14.01,2013-06-20 17:16:00,
2013-06-20 13:21:00,81.1,64.9,30.20,NE,50,4.0,4.0,58,0.00,,---,0.00,VWS V14.01,2013-06-20 17:21:00,
2013-06-20 13:26:00,81.3,64.6,30.20,West,269,1.0,1.0,57,0.00,,---,0.00,VWS V14.01,2013-06-20 17:26:00,
2013-06-20 13:31:00,81.7,65.0,30.20,WNW,290,0.0,2.0,57,0.00,,---,0.00,VWS V14.01,2013-06-20 17:31:00,
2013-06-20 13:36:00,82.3,66.1,30.20,SE,131,1.0,2.0,58,0.00,,---,0.00,VWS V14.01,2013-06-20 17:36:00,
2013-06-20 13:41:00,82.5,64.7,30.20,SSE,166,0.0,2.0,55,0.00,,---,0.00,VWS V14.01,2013-06-20 17:41:00,
2013-06-20 13:46:00,82.1,63.3,30.20,NNW,329,4.0,4.0,53,0.00,,---,0.00,VWS V14.01,2013-06-20 17:46:00,
2013-06-20 13:51:00,81.2,64.0,30.21,NW,304,0.0,4.0,56,0.00,,---,0.00,VWS V14.01,2013-06-20 17:51:00,
2013-06-20 13:56:00,81.8,63.5,30.21,West,260,0.0,0.0,54,0.00,,---,0.00,VWS V14.01,2013-06-20 17:56:00,
2013-06-20 14:01:00,82.3,64.0,30.20,NNE,17,2.0,2.0,54,0.00,,---,0.00,VWS V14.01,2013-06-20 18:01:00,
2013-06-20 14:06:00,81.6,63.4,30.20,NE,49,0.0,2.0,54,0.00,,---,0.00,VWS V14.01,2013-06-20 18:06:00,
2013-06-20 14:11:00,81.6,63.4,30.20,WSW,249,2.0,2.0,54,0.00,,---,0.00,VWS V14.01,2013-06-20 18:11:00,
2013-06-20 14:16:00,81.8,64.6,30.20,NNE,31,0.0,2.0,56,0.00,,---,0.00,VWS V14.01,2013-06-20 18:16:00,
2013-06-20 14:21:00,82.5,64.2,30.20,NE,54,1.0,2.0,54,0.00,,---,0.00,VWS V14.01,2013-06-20 18:21:00,
2013-06-20 14:26:00,83.2,64.8,30.20,West,268,0.0,1.0,54,0.00,,---,0.00,VWS V14.01,2013-06-20 18:26:00,
2013-06-20 14:31:00,83.5,64.0,30.20,SSE,159,0.0,1.0,52,0.00,,---,0.00,VWS V14.01,2013-06-20 18:31:00,
2013-06-20 14:36:00,83.8,64.9,30.20,SE,140,0.0,1.0,53,0.00,,---,0.00,VWS V14.01,2013-06-20 18:36:00,
2013-06-20 14:41:00,83.9,65.5,30.20,ENE,61,1.0,3.0,54,0.00,,---,0.00,VWS V14.01,2013-06-20 18:41:00,
2013-06-20 14:46:00,84.0,64.5,30.19,NE,42,1.0,3.0,52,0.00,,---,0.00,VWS V14.01,2013-06-20 18:46:00,
2013-06-20 14:51:00,83.6,64.1,30.19,ENE,76,1.0,3.0,52,0.00,,---,0.00,VWS V14.01,2013-06-20 18:51:00,
2013-06-20 14:56:00,82.7,64.4,30.19,NNE,26,0.0,2.0,54,0.00,,---,0.00,VWS V14.01,2013-06-20 18:56:00,
2013-06-20 15:01:00,82.6,64.8,30.19,ENE,70,0.0,2.0,55,0.00,,---,0.00,VWS V14.01,2013-06-20 19:01:00,
2013-06-20 15:06:00,82.7,64.4,30.19,East,100,0.0,2.0,54,0.00,,---,0.00,VWS V14.01,2013-06-20 19:06:00,
2013-06-20 15:11:00,82.5,65.2,30.19,ESE,114,0.0,2.0,56,0.00,,---,0.00,VWS V14.01,2013-06-20 19:11:00,
2013-06-20 15:16:00,83.1,65.8,30.19,NNW,345,0.0,2.0,56,0.00,,---,0.00,VWS V14.01,2013-06-20 19:16:00,
2013-06-20 15:21:00,83.6,65.2,30.19,NW,326,0.0,2.0,54,0.00,,---,0.00,VWS V14.01,2013-06-20 19:21:00,
2013-06-20 15:26:00,83.1,64.8,30.18,NE,46,0.0,1.0,54,0.00,,---,0.00,VWS V14.01,2013-06-20 19:26:00,
2013-06-20 15:32:00,82.8,65.0,30.18,WNW,303,1.0,2.0,55,0.00,,---,0.00,VWS V14.01,2013-06-20 19:32:00,
2013-06-20 15:37:00,82.5,64.7,30.18,WNW,288,1.0,2.0,55,0.00,,---,0.00,VWS V14.01,2013-06-20 19:37:00,
2013-06-20 15:42:00,82.5,64.2,30.18,NW,310,1.0,2.0,54,0.00,,---,0.00,VWS V14.01,2013-06-20 19:42:00,
2013-06-20 15:47:00,82.8,65.5,30.18,ENE,73,0.0,2.0,56,0.00,,---,0.00,VWS V14.01,2013-06-20 19:47:00,
2013-06-20 15:52:00,83.3,66.5,30.18,NE,53,0.0,2.0,57,0.00,,---,0.00,VWS V14.01,2013-06-20 19:52:00,
2013-06-20 15:57:00,83.2,63.8,30.18,WNW,298,1.0,2.0,52,0.00,,---,0.00,VWS V14.01,2013-06-20 19:57:00,
2013-06-20 16:02:00,83.0,64.1,30.18,NW,307,1.0,2.0,53,0.00,,---,0.00,VWS V14.01,2013-06-20 20:02:00,
2013-06-20 16:07:00,83.1,65.3,30.18,NE,45,1.0,2.0,55,0.00,,---,0.00,VWS V14.01,2013-06-20 20:07:00,
2013-06-20 16:12:00,82.9,65.6,30.18,NE,40,1.0,2.0,56,0.00,,---,0.00,VWS V14.01,2013-06-20 20:12:00,
2013-06-20 16:17:00,82.7,64.9,30.18,NE,38,0.0,2.0,55,0.00,,---,0.00,VWS V14.01,2013-06-20 20:17:00,
2013-06-20 16:22:00,82.7,65.4,30.18,WNW,294,0.0,2.0,56,0.00,,---,0.00,VWS V14.01,2013-06-20 20:22:00,
2013-06-20 16:27:00,83.0,66.7,30.18,WNW,292,0.0,1.0,58,0.00,,---,0.00,VWS V14.01,2013-06-20 20:27:00,
2013-06-20 16:32:00,83.1,66.3,30.18,East,85,1.0,1.0,57,0.00,,---,0.00,VWS V14.01,2013-06-20 20:32:00,
2013-06-20 16:37:00,82.9,66.1,30.18,NW,321,0.0,1.0,57,0.00,,---,0.00,VWS V14.01,2013-06-20 20:37:00,
2013-06-20 16:42:00,82.7,65.9,30.18,NW,311,1.0,1.0,57,0.00,,---,0.00,VWS V14.01,2013-06-20 20:42:00,
2013-06-20 16:47:00,82.7,66.9,30.18,ESE,107,0.0,1.0,59,0.00,,---,0.00,VWS V14.01,2013-06-20 20:47:00,
2013-06-20 16:52:00,82.7,65.4,30.18,East,94,1.0,1.0,56,0.00,,---,0.00,VWS V14.01,2013-06-20 20:52:00,
2013-06-20 16:57:00,82.8,67.0,30.17,SE,144,0.0,0.0,59,0.00,,---,0.00,VWS V14.01,2013-06-20 20:57:00,
2013-06-20 17:02:00,83.1,66.8,30.17,NE,49,1.0,1.0,58,0.00,,---,0.00,VWS V14.01,2013-06-20 21:02:00,
2013-06-20 17:07:00,82.7,65.4,30.17,NW,312,1.0,1.0,56,0.00,,---,0.00,VWS V14.01,2013-06-20 21:07:00,
2013-06-20 17:12:00,82.5,65.8,30.17,NW,314,0.0,1.0,57,0.00,,---,0.00,VWS V14.01,2013-06-20 21:12:00,
2013-06-20 17:17:00,83.1,66.8,30.17,NW,326,0.0,1.0,58,0.00,,---,0.00,VWS V14.01,2013-06-20 21:17:00,
2013-06-20 17:22:00,83.1,65.3,30.16,North,349,0.0,1.0,55,0.00,,---,0.00,VWS V14.01,2013-06-20 21:22:00,
2013-06-20 17:27:00,82.7,65.9,30.16,NNW,346,0.0,0.0,57,0.00,,---,0.00,VWS V14.01,2013-06-20 21:27:00,
2013-06-20 17:32:00,82.8,67.0,30.16,NNW,348,0.0,0.0,59,0.00,,---,0.00,VWS V14.01,2013-06-20 21:32:00,
2013-06-20 17:37:00,82.9,66.6,30.16,East,89,0.0,1.0,58,0.00,,---,0.00,VWS V14.01,2013-06-20 21:37:00,
2013-06-20 17:42:00,82.8,67.0,30.16,ENE,78,0.0,1.0,59,0.00,,---,0.00,VWS V14.01,2013-06-20 21:42:00,
2013-06-20 17:47:00,82.8,67.5,30.16,ENE,69,1.0,1.0,60,0.00,,---,0.00,VWS V14.01,2013-06-20 21:47:00,
2013-06-20 17:52:00,82.3,67.5,30.16,ENE,63,0.0,1.0,61,0.00,,---,0.00,VWS V14.01,2013-06-20 21:52:00,
2013-06-20 17:57:00,81.9,67.6,30.16,ENE,63,1.0,1.0,62,0.00,,---,0.00,VWS V14.01,2013-06-20 21:57:00,
2013-06-20 18:02:00,81.3,67.5,30.15,NE,55,0.0,1.0,63,0.00,,---,0.00,VWS V14.01,2013-06-20 22:02:00,
2013-06-20 18:07:00,81.0,67.7,30.16,North,360,0.0,1.0,64,0.00,,---,0.00,VWS V14.01,2013-06-20 22:07:00,
2013-06-20 18:12:00,80.9,67.6,30.15,NE,47,0.0,1.0,64,0.00,,---,0.00,VWS V14.01,2013-06-20 22:12:00,
2013-06-20 18:17:00,80.7,67.4,30.16,NE,42,1.0,1.0,64,0.00,,---,0.00,VWS V14.01,2013-06-20 22:17:00,
2013-06-20 18:22:00,80.1,67.3,30.15,SE,136,0.0,1.0,65,0.00,,---,0.00,VWS V14.01,2013-06-20 22:22:00,
2013-06-20 18:28:00,79.7,66.9,30.15,ENE,63,0.0,1.0,65,0.00,,---,0.00,VWS V14.01,2013-06-20 22:28:00,
2013-06-20 18:33:00,79.5,67.2,30.15,ENE,78,0.0,1.0,66,0.00,,---,0.00,VWS V14.01,2013-06-20 22:33:00,
2013-06-20 18:38:00,79.3,67.0,30.15,NW,313,0.0,1.0,66,0.00,,---,0.00,VWS V14.01,2013-06-20 22:38:00,
2013-06-20 18:43:00,79.0,67.1,30.15,NW,312,0.0,1.0,67,0.00,,---,0.00,VWS V14.01,2013-06-20 22:43:00,
2013-06-20 18:48:00,78.7,67.7,30.15,NW,314,0.0,1.0,69,0.00,,---,0.00,VWS V14.01,2013-06-20 22:48:00,
2013-06-20 18:53:00,78.2,67.6,30.15,NW,313,0.0,1.0,70,0.00,,---,0.00,VWS V14.01,2013-06-20 22:53:00,
2013-06-20 18:58:00,77.7,67.6,30.16,NW,312,0.0,0.0,71,0.00,,---,0.00,VWS V14.01,2013-06-20 22:58:00,
2013-06-20 19:03:00,77.1,67.0,30.16,NW,313,0.0,0.0,71,0.00,,---,0.00,VWS V14.01,2013-06-20 23:03:00,
2013-06-20 19:08:00,76.8,67.5,30.16,NW,313,0.0,0.0,73,0.00,,---,0.00,VWS V14.01,2013-06-20 23:08:00,
2013-06-20 19:13:00,76.4,67.1,30.16,NW,313,0.0,0.0,73,0.00,,---,0.00,VWS V14.01,2013-06-20 23:13:00,
2013-06-20 19:18:00,75.9,67.0,30.16,NW,313,0.0,0.0,74,0.00,,---,0.00,VWS V14.01,2013-06-20 23:18:00,
2013-06-20 19:23:00,75.6,67.1,30.17,NW,313,0.0,0.0,75,0.00,,---,0.00,VWS V14.01,2013-06-20 23:23:00,
2013-06-20 19:28:00,75.4,67.3,30.16,NW,313,0.0,0.0,76,0.00,,---,0.00,VWS V14.01,2013-06-20 23:28:00,
2013-06-20 19:33:00,75.2,67.1,30.16,NW,313,0.0,0.0,76,0.00,,---,0.00,VWS V14.01,2013-06-20 23:33:00,
2013-06-20 19:38:00,75.0,67.3,30.17,NW,313,0.0,0.0,77,0.00,,---,0.00,VWS V14.01,2013-06-20 23:38:00,
2013-06-20 19:43:00,74.8,67.5,30.17,NW,313,0.0,0.0,78,0.00,,---,0.00,VWS V14.01,2013-06-20 23:43:00,
2013-06-20 19:48:00,74.5,66.8,30.17,NW,313,0.0,0.0,77,0.00,,---,0.00,VWS V14.01,2013-06-20 23:48:00,
2013-06-20 19:53:00,74.3,67.0,30.17,NW,313,0.0,0.0,78,0.00,,---,0.00,VWS V14.01,2013-06-20 23:53:00,
2013-06-20 19:58:00,74.0,66.7,30.17,NW,313,0.0,0.0,78,0.00,,---,0.00,VWS V14.01,2013-06-20 23:58:00,
2013-06-20 20:03:00,73.6,66.3,30.17,NW,313,0.0,0.0,78,0.00,,---,0.00,VWS V14.01,2013-06-21 00:03:00,
2013-06-20 20:08:00,73.2,66.3,30.17,NW,313,0.0,0.0,79,0.00,,---,0.00,VWS V14.01,2013-06-21 00:08:00,
2013-06-20 20:13:00,72.8,66.3,30.17,NW,313,0.0,0.0,80,0.00,,---,0.00,VWS V14.01,2013-06-21 00:13:00,
2013-06-20 20:18:00,72.4,65.9,30.17,NW,313,0.0,0.0,80,0.00,,---,0.00,VWS V14.01,2013-06-21 00:18:00,
2013-06-20 20:23:00,72.0,65.9,30.18,NW,312,0.0,0.0,81,0.00,,---,0.00,VWS V14.01,2013-06-21 00:23:00,
2013-06-20 20:28:00,71.7,65.9,30.18,NW,313,0.0,0.0,82,0.00,,---,0.00,VWS V14.01,2013-06-21 00:28:00,
2013-06-20 20:33:00,71.4,65.6,30.18,NW,312,0.0,0.0,82,0.00,,---,0.00,VWS V14.01,2013-06-21 00:33:00,
2013-06-20 20:38:00,71.0,65.6,30.18,NW,313,0.0,0.0,83,0.00,,---,0.00,VWS V14.01,2013-06-21 00:38:00,
2013-06-20 20:43:00,70.6,65.5,30.17,NW,313,0.0,0.0,84,0.00,,---,0.00,VWS V14.01,2013-06-21 00:43:00,
2013-06-20 20:48:00,70.1,65.4,30.17,NW,313,0.0,0.0,85,0.00,,---,0.00,VWS V14.01,2013-06-21 00:48:00,
2013-06-20 20:53:00,69.6,65.2,30.18,NW,313,0.0,0.0,86,0.00,,---,0.00,VWS V14.01,2013-06-21 00:53:00,
2013-06-20 20:58:00,69.3,64.9,30.18,NW,312,0.0,0.0,86,0.00,,---,0.00,VWS V14.01,2013-06-21 00:58:00,
2013-06-20 21:04:00,68.9,64.9,30.18,NW,313,0.0,0.0,87,0.00,,---,0.00,VWS V14.01,2013-06-21 01:04:00,
2013-06-20 21:09:00,68.6,64.9,30.18,NW,313,0.0,0.0,88,0.00,,---,0.00,VWS V14.01,2013-06-21 01:09:00,
2013-06-20 21:14:00,68.3,64.6,30.18,NW,313,0.0,0.0,88,0.00,,---,0.00,VWS V14.01,2013-06-21 01:14:00,
2013-06-20 21:19:00,67.9,64.5,30.18,NW,312,0.0,0.0,89,0.00,,---,0.00,VWS V14.01,2013-06-21 01:19:00,
2013-06-20 21:24:00,67.6,64.2,30.18,NW,313,0.0,0.0,89,0.00,,---,0.00,VWS V14.01,2013-06-21 01:24:00,
2013-06-20 21:29:00,67.3,64.3,30.18,NW,313,0.0,0.0,90,0.00,,---,0.00,VWS V14.01,2013-06-21 01:29:00,
2013-06-20 21:34:00,67.1,64.4,30.18,NW,312,0.0,0.0,91,0.00,,---,0.00,VWS V14.01,2013-06-21 01:34:00,
2013-06-20 21:39:00,66.9,64.2,30.19,NW,313,0.0,0.0,91,0.00,,---,0.00,VWS V14.01,2013-06-21 01:39:00,
2013-06-20 21:44:00,66.6,63.9,30.19,NW,313,0.0,0.0,91,0.00,,---,0.00,VWS V14.01,2013-06-21 01:44:00,
2013-06-20 21:49:00,66.4,63.7,30.19,NW,313,0.0,0.0,91,0.00,,---,0.00,VWS V14.01,2013-06-21 01:49:00,
2013-06-20 21:54:00,66.2,63.8,30.19,NW,313,0.0,0.0,92,0.00,,---,0.00,VWS V14.01,2013-06-21 01:54:00,
2013-06-20 21:59:00,66.0,63.6,30.19,NW,312,0.0,0.0,92,0.00,,---,0.00,VWS V14.01,2013-06-21 01:59:00,
2013-06-20 22:04:00,65.9,63.5,30.20,NW,313,0.0,0.0,92,0.00,,---,0.00,VWS V14.01,2013-06-21 02:04:00,
2013-06-20 22:09:00,65.8,63.4,30.20,NW,313,0.0,0.0,92,0.00,,---,0.00,VWS V14.01,2013-06-21 02:09:00,
2013-06-20 22:14:00,65.7,63.3,30.20,NW,313,0.0,0.0,92,0.00,,---,0.00,VWS V14.01,2013-06-21 02:14:00,
2013-06-20 22:19:00,65.5,63.4,30.20,NW,313,0.0,0.0,93,0.00,,---,0.00,VWS V14.01,2013-06-21 02:19:00,
2013-06-20 22:24:00,65.4,63.3,30.20,NW,313,0.0,0.0,93,0.00,,---,0.00,VWS V14.01,2013-06-21 02:24:00,
2013-06-20 22:29:00,65.2,63.1,30.20,NW,313,0.0,0.0,93,0.00,,---,0.00,VWS V14.01,2013-06-21 02:29:00,
2013-06-20 22:34:00,65.1,63.0,30.20,NW,312,0.0,0.0,93,0.00,,---,0.00,VWS V14.01,2013-06-21 02:34:00,
2013-06-20 22:39:00,65.0,62.9,30.20,NW,313,0.0,0.0,93,0.00,,---,0.00,VWS V14.01,2013-06-21 02:39:00,
2013-06-20 22:44:00,64.9,62.8,30.21,NW,313,0.0,0.0,93,0.00,,---,0.00,VWS V14.01,2013-06-21 02:44:00,
2013-06-20 22:49:00,64.9,63.1,30.21,NW,312,0.0,0.0,94,0.00,,---,0.00,VWS V14.01,2013-06-21 02:49:00,
2013-06-20 22:54:00,64.7,62.9,30.21,NW,312,0.0,0.0,94,0.00,,---,0.00,VWS V14.01,2013-06-21 02:54:00,
2013-06-20 22:59:00,64.6,62.8,30.21,NW,313,0.0,0.0,94,0.00,,---,0.00,VWS V14.01,2013-06-21 02:59:00,
2013-06-20 23:04:00,64.5,62.7,30.21,NW,312,0.0,0.0,94,0.00,,---,0.00,VWS V14.01,2013-06-21 03:04:00,
2013-06-20 23:10:00,64.4,62.6,30.21,NW,313,0.0,0.0,94,0.00,,---,0.00,VWS V14.01,2013-06-21 03:10:00,
2013-06-20 23:15:00,64.3,62.5,30.21,NW,312,0.0,0.0,94,0.00,,---,0.00,VWS V14.01,2013-06-21 03:15:00,
2013-06-20 23:20:00,64.2,62.4,30.21,NW,313,0.0,0.0,94,0.00,,---,0.00,VWS V14.01,2013-06-21 03:20:00,
2013-06-20 23:25:00,64.0,62.2,30.21,NW,313,0.0,0.0,94,0.00,,---,0.00,VWS V14.01,2013-06-21 03:25:00,
2013-06-20 23:30:00,63.9,62.1,30.21,NW,312,0.0,0.0,94,0.00,,---,0.00,VWS V14.01,2013-06-21 03:30:00,
2013-06-20 23:35:00,63.8,62.0,30.21,NW,313,0.0,0.0,94,0.00,,---,0.00,VWS V14.01,2013-06-21 03:35:00,
2013-06-20 23:40:00,63.7,62.0,30.21,NW,313,0.0,0.0,94,0.00,,---,0.00,VWS V14.01,2013-06-21 03:40:00,
2013-06-20 23:45:00,63.5,61.8,30.21,NW,313,0.0,0.0,94,0.00,,---,0.00,VWS V14.01,2013-06-21 03:45:00,
2013-06-20 23:50:00,63.4,61.7,30.21,NW,313,0.0,0.0,94,0.00,,---,0.00,VWS V14.01,2013-06-21 03:50:00,
2013-06-20 23:55:00,63.4,61.7,30.21,NW,313,0.0,0.0,94,0.00,,---,0.00,VWS V14.01,2013-06-21 03:55:00,